DAL258 KDTW-KMCO
Flight info
| Callsign | DAL258 |
|---|---|
| Flight time | 2h 6m |
| Altitude | 34000 |
| Route | CLVIN3 STAZE VXV/N0454F330 TEUFL/N0458F340 WHYYT GRNCH5 |
| Aircraft | B739/M-SDE2E3FGHIRWXY/LB1 |
Departure
| Time | 2026-05-05 01:18 |
|---|---|
| Airport | Detroit Metropolitan Wayne County Airport (KDTW) |
Arrival
| Time | 2026-05-05 03:24 |
|---|---|
| Airport | Orlando International Airport (KMCO) |
| Time | Latitude | Longitude | Altitude | Speed | Heading |
|---|---|---|---|---|---|
| 2026-05-05 00:55 | 42.21368 | -83.35480 | 645 ft | 0 kts | 119° |
| 2026-05-05 01:04 | 42.21378 | -83.35503 | 649 ft | 3 kts | 117° |
| 2026-05-05 01:04 | 42.21387 | -83.35528 | 647 ft | 3 kts | 117° |
| 2026-05-05 01:05 | 42.21394 | -83.35547 | 649 ft | 3 kts | 111° |
| 2026-05-05 01:05 | 42.21397 | -83.35569 | 645 ft | 3 kts | 70° |
| 2026-05-05 01:05 | 42.21387 | -83.35588 | 647 ft | 3 kts | 34° |
| 2026-05-05 01:05 | 42.21376 | -83.35597 | 647 ft | 1 kts | 28° |
| 2026-05-05 01:10 | 42.21382 | -83.35593 | 646 ft | 3 kts | 28° |
| 2026-05-05 01:11 | 42.21412 | -83.35571 | 645 ft | 7 kts | 28° |
| 2026-05-05 01:11 | 42.21470 | -83.35528 | 647 ft | 12 kts | 28° |
| 2026-05-05 01:11 | 42.21565 | -83.35509 | 645 ft | 16 kts | 359° |
| 2026-05-05 01:11 | 42.21695 | -83.35515 | 642 ft | 21 kts | 358° |
| 2026-05-05 01:12 | 42.21845 | -83.35528 | 645 ft | 22 kts | 338° |
| 2026-05-05 01:12 | 42.21967 | -83.35584 | 645 ft | 15 kts | 21° |
| 2026-05-05 01:12 | 42.22057 | -83.35519 | 645 ft | 14 kts | 28° |
| 2026-05-05 01:12 | 42.22146 | -83.35454 | 645 ft | 16 kts | 28° |
| 2026-05-05 01:13 | 42.22253 | -83.35376 | 646 ft | 19 kts | 28° |
| 2026-05-05 01:13 | 42.22367 | -83.35275 | 647 ft | 19 kts | 28° |
| 2026-05-05 01:13 | 42.22484 | -83.35190 | 646 ft | 19 kts | 28° |
| 2026-05-05 01:13 | 42.22597 | -83.35107 | 646 ft | 18 kts | 29° |
| 2026-05-05 01:14 | 42.22705 | -83.35026 | 645 ft | 18 kts | 28° |
| 2026-05-05 01:14 | 42.22811 | -83.34949 | 647 ft | 17 kts | 28° |
| 2026-05-05 01:14 | 42.22912 | -83.34874 | 646 ft | 16 kts | 28° |
| 2026-05-05 01:14 | 42.23003 | -83.34828 | 646 ft | 8 kts | 359° |
| 2026-05-05 01:15 | 42.23048 | -83.34866 | 646 ft | 8 kts | 302° |
| 2026-05-05 01:15 | 42.23059 | -83.34890 | 646 ft | 0 kts | 300° |
| 2026-05-05 01:16 | 42.23064 | -83.34903 | 648 ft | 5 kts | 300° |
| 2026-05-05 01:16 | 42.23089 | -83.34985 | 645 ft | 13 kts | 278° |
| 2026-05-05 01:16 | 42.23065 | -83.35040 | 645 ft | 0 kts | 211° |
| 2026-05-05 01:17 | 42.23061 | -83.35043 | 645 ft | 9 kts | 211° |
| 2026-05-05 01:17 | 42.22766 | -83.35262 | 647 ft | 86 kts | 208° |
| 2026-05-05 01:17 | 42.22050 | -83.35786 | 648 ft | 148 kts | 207° |
| 2026-05-05 01:17 | 42.21061 | -83.36480 | 1116 ft | 161 kts | 207° |
| 2026-05-05 01:18 | 42.20050 | -83.37159 | 1914 ft | 161 kts | 213° |
| 2026-05-05 01:18 | 42.19153 | -83.37825 | 2969 ft | 146 kts | 216° |
| 2026-05-05 01:18 | 42.18219 | -83.38549 | 3327 ft | 165 kts | 217° |
| 2026-05-05 01:18 | 42.17153 | -83.39362 | 3604 ft | 183 kts | 216° |
| 2026-05-05 01:19 | 42.16091 | -83.40319 | 3826 ft | 199 kts | 223° |
| 2026-05-05 01:19 | 42.15002 | -83.41520 | 4198 ft | 210 kts | 224° |
| 2026-05-05 01:19 | 42.13855 | -83.42809 | 4564 ft | 223 kts | 224° |
| 2026-05-05 01:19 | 42.12615 | -83.44199 | 4963 ft | 238 kts | 223° |
| 2026-05-05 01:20 | 42.11331 | -83.45626 | 5701 ft | 242 kts | 224° |
| 2026-05-05 01:20 | 42.10008 | -83.47090 | 6340 ft | 249 kts | 224° |
| 2026-05-05 01:20 | 42.08662 | -83.48574 | 6866 ft | 251 kts | 224° |
| 2026-05-05 01:20 | 42.07305 | -83.50066 | 6989 ft | 250 kts | 224° |
| 2026-05-05 01:21 | 42.05961 | -83.51541 | 6994 ft | 250 kts | 223° |
| 2026-05-05 01:21 | 42.04601 | -83.53033 | 7015 ft | 252 kts | 223° |
| 2026-05-05 01:21 | 42.03240 | -83.54524 | 7013 ft | 253 kts | 223° |
| 2026-05-05 01:21 | 42.01801 | -83.55887 | 6990 ft | 258 kts | 208° |
| 2026-05-05 01:22 | 42.00020 | -83.56403 | 7036 ft | 270 kts | 187° |
| 2026-05-05 01:22 | 41.98125 | -83.55960 | 7437 ft | 285 kts | 168° |
| 2026-05-05 01:22 | 41.96263 | -83.55002 | 8190 ft | 288 kts | 165° |
| 2026-05-05 01:22 | 41.94399 | -83.53969 | 8947 ft | 291 kts | 164° |
| 2026-05-05 01:23 | 41.92514 | -83.52916 | 9629 ft | 295 kts | 164° |
| 2026-05-05 01:23 | 41.90602 | -83.51857 | 10234 ft | 300 kts | 164° |
| 2026-05-05 01:23 | 41.88603 | -83.50766 | 10453 ft | 321 kts | 164° |
| 2026-05-05 01:23 | 41.86458 | -83.49605 | 10627 ft | 342 kts | 164° |
| 2026-05-05 01:24 | 41.84187 | -83.48377 | 10782 ft | 362 kts | 163° |
| 2026-05-05 01:24 | 41.81803 | -83.47085 | 11084 ft | 375 kts | 163° |
| 2026-05-05 01:24 | 41.79365 | -83.45761 | 11617 ft | 380 kts | 163° |
| 2026-05-05 01:24 | 41.76911 | -83.44433 | 12274 ft | 382 kts | 163° |
| 2026-05-05 01:25 | 41.74440 | -83.43102 | 12918 ft | 385 kts | 163° |
| 2026-05-05 01:25 | 41.71898 | -83.41972 | 13472 ft | 382 kts | 176° |
| 2026-05-05 01:25 | 41.69288 | -83.41961 | 14004 ft | 373 kts | 195° |
| 2026-05-05 01:25 | 41.66818 | -83.42897 | 14606 ft | 368 kts | 203° |
| 2026-05-05 01:26 | 41.64387 | -83.44020 | 15134 ft | 371 kts | 204° |
| 2026-05-05 01:26 | 41.61935 | -83.45178 | 15652 ft | 375 kts | 204° |
| 2026-05-05 01:26 | 41.59465 | -83.46338 | 16178 ft | 378 kts | 204° |
| 2026-05-05 01:26 | 41.57009 | -83.47474 | 16692 ft | 380 kts | 203° |
| 2026-05-05 01:27 | 41.54492 | -83.48625 | 17201 ft | 384 kts | 203° |
| 2026-05-05 01:27 | 41.51953 | -83.49776 | 17719 ft | 386 kts | 203° |
| 2026-05-05 01:27 | 41.49396 | -83.50930 | 18191 ft | 389 kts | 203° |
| 2026-05-05 01:27 | 41.46818 | -83.52091 | 18609 ft | 393 kts | 203° |
| 2026-05-05 01:28 | 41.44222 | -83.53260 | 19055 ft | 395 kts | 203° |
| 2026-05-05 01:28 | 41.41605 | -83.54437 | 19490 ft | 398 kts | 203° |
| 2026-05-05 01:28 | 41.38971 | -83.55621 | 19902 ft | 401 kts | 203° |
| 2026-05-05 01:28 | 41.36315 | -83.56814 | 20325 ft | 404 kts | 202° |
| 2026-05-05 01:29 | 41.33644 | -83.58012 | 20745 ft | 407 kts | 202° |
| 2026-05-05 01:29 | 41.30952 | -83.59219 | 21153 ft | 410 kts | 202° |
| 2026-05-05 01:29 | 41.28237 | -83.60435 | 21560 ft | 413 kts | 202° |
| 2026-05-05 01:29 | 41.25505 | -83.61657 | 21966 ft | 416 kts | 202° |
| 2026-05-05 01:30 | 41.22751 | -83.62889 | 22375 ft | 419 kts | 202° |
| 2026-05-05 01:30 | 41.19990 | -83.64123 | 22767 ft | 421 kts | 202° |
| 2026-05-05 01:30 | 41.17191 | -83.65372 | 23152 ft | 424 kts | 202° |
| 2026-05-05 01:30 | 41.14382 | -83.66625 | 23499 ft | 427 kts | 202° |
| 2026-05-05 01:31 | 41.11598 | -83.67865 | 23839 ft | 429 kts | 202° |
| 2026-05-05 01:31 | 41.08730 | -83.69141 | 24199 ft | 431 kts | 202° |
| 2026-05-05 01:31 | 41.05885 | -83.70406 | 24532 ft | 432 kts | 202° |
| 2026-05-05 01:31 | 41.03022 | -83.71678 | 24857 ft | 435 kts | 202° |
| 2026-05-05 01:32 | 41.00149 | -83.72954 | 25183 ft | 436 kts | 202° |
| 2026-05-05 01:32 | 40.97260 | -83.74235 | 25503 ft | 438 kts | 202° |
| 2026-05-05 01:32 | 40.94362 | -83.75520 | 25818 ft | 440 kts | 202° |
| 2026-05-05 01:32 | 40.91451 | -83.76809 | 26101 ft | 443 kts | 202° |
| 2026-05-05 01:33 | 40.88559 | -83.78089 | 26392 ft | 445 kts | 202° |
| 2026-05-05 01:33 | 40.85612 | -83.79391 | 26683 ft | 447 kts | 202° |
| 2026-05-05 01:33 | 40.82651 | -83.80698 | 26981 ft | 449 kts | 202° |
| 2026-05-05 01:33 | 40.79681 | -83.82009 | 27254 ft | 452 kts | 202° |
| 2026-05-05 01:34 | 40.76691 | -83.83327 | 27525 ft | 454 kts | 202° |
| 2026-05-05 01:34 | 40.73690 | -83.84650 | 27804 ft | 456 kts | 202° |
| 2026-05-05 01:34 | 40.70678 | -83.85975 | 28151 ft | 456 kts | 202° |
| 2026-05-05 01:34 | 40.67676 | -83.87294 | 28591 ft | 454 kts | 202° |
| 2026-05-05 01:35 | 40.64684 | -83.88608 | 29036 ft | 452 kts | 202° |
| 2026-05-05 01:35 | 40.61698 | -83.89918 | 29419 ft | 452 kts | 202° |
| 2026-05-05 01:35 | 40.58708 | -83.91229 | 29767 ft | 452 kts | 202° |
| 2026-05-05 01:35 | 40.55727 | -83.92536 | 30081 ft | 452 kts | 202° |
| 2026-05-05 01:36 | 40.52745 | -83.93842 | 30422 ft | 451 kts | 202° |
| 2026-05-05 01:36 | 40.49773 | -83.95141 | 30748 ft | 450 kts | 202° |
| 2026-05-05 01:36 | 40.46797 | -83.96442 | 31046 ft | 449 kts | 202° |
| 2026-05-05 01:36 | 40.43829 | -83.97738 | 31327 ft | 450 kts | 202° |
| 2026-05-05 01:37 | 40.40893 | -83.99019 | 31606 ft | 449 kts | 202° |
| 2026-05-05 01:37 | 40.37929 | -84.00311 | 31888 ft | 449 kts | 202° |
| 2026-05-05 01:37 | 40.34956 | -84.01606 | 32148 ft | 449 kts | 202° |
| 2026-05-05 01:37 | 40.31991 | -84.02896 | 32409 ft | 449 kts | 202° |
| 2026-05-05 01:38 | 40.29015 | -84.04152 | 32681 ft | 450 kts | 198° |
| 2026-05-05 01:38 | 40.25881 | -84.04732 | 32883 ft | 458 kts | 187° |
| 2026-05-05 01:38 | 40.22701 | -84.04906 | 33148 ft | 458 kts | 186° |
| 2026-05-05 01:38 | 40.19514 | -84.05058 | 33386 ft | 458 kts | 186° |
| 2026-05-05 01:39 | 40.16330 | -84.05256 | 33648 ft | 457 kts | 187° |
| 2026-05-05 01:39 | 40.13157 | -84.05494 | 33773 ft | 458 kts | 187° |
| 2026-05-05 01:39 | 40.06780 | -84.06006 | 33771 ft | 458 kts | 187° |
| 2026-05-05 01:40 | 40.00437 | -84.06504 | 33772 ft | 456 kts | 187° |
| 2026-05-05 01:40 | 39.94103 | -84.06996 | 33758 ft | 455 kts | 187° |
| 2026-05-05 01:41 | 39.87816 | -84.07485 | 33757 ft | 455 kts | 187° |
| 2026-05-05 01:41 | 39.81505 | -84.07975 | 33758 ft | 455 kts | 187° |
| 2026-05-05 01:42 | 39.75169 | -84.08466 | 33763 ft | 456 kts | 187° |
| 2026-05-05 01:42 | 39.68820 | -84.08958 | 33780 ft | 457 kts | 187° |
| 2026-05-05 01:43 | 39.63526 | -84.09366 | 33779 ft | 458 kts | 187° |
| 2026-05-05 01:43 | 39.57150 | -84.09858 | 33778 ft | 460 kts | 187° |
| 2026-05-05 01:44 | 39.49723 | -84.10429 | 33782 ft | 460 kts | 187° |
| 2026-05-05 01:44 | 39.44370 | -84.10840 | 33776 ft | 461 kts | 187° |
| 2026-05-05 01:45 | 39.37955 | -84.11331 | 33794 ft | 461 kts | 187° |
| 2026-05-05 01:45 | 39.31553 | -84.11821 | 33803 ft | 461 kts | 187° |
| 2026-05-05 01:46 | 39.25187 | -84.12307 | 33803 ft | 461 kts | 187° |
| 2026-05-05 01:46 | 39.18794 | -84.12794 | 33802 ft | 460 kts | 187° |
| 2026-05-05 01:47 | 39.12399 | -84.13281 | 33806 ft | 460 kts | 187° |
| 2026-05-05 01:47 | 39.06012 | -84.13766 | 33803 ft | 459 kts | 187° |
| 2026-05-05 01:48 | 38.99638 | -84.14249 | 33809 ft | 458 kts | 187° |
| 2026-05-05 01:48 | 38.93309 | -84.14729 | 33812 ft | 458 kts | 187° |
| 2026-05-05 01:49 | 38.86944 | -84.15215 | 33820 ft | 457 kts | 187° |
| 2026-05-05 01:49 | 38.80591 | -84.15710 | 33826 ft | 457 kts | 187° |
| 2026-05-05 01:50 | 38.74240 | -84.16214 | 33832 ft | 457 kts | 187° |
| 2026-05-05 01:50 | 38.67901 | -84.16710 | 33834 ft | 456 kts | 187° |
| 2026-05-05 01:51 | 38.61565 | -84.17200 | 33840 ft | 456 kts | 187° |
| 2026-05-05 01:51 | 38.55232 | -84.17680 | 33846 ft | 456 kts | 187° |
| 2026-05-05 01:52 | 38.48895 | -84.18152 | 33845 ft | 456 kts | 187° |
| 2026-05-05 01:52 | 38.42558 | -84.18604 | 33848 ft | 456 kts | 187° |
| 2026-05-05 01:53 | 38.36217 | -84.19034 | 33846 ft | 456 kts | 187° |
| 2026-05-05 01:53 | 38.29875 | -84.19443 | 33862 ft | 456 kts | 187° |
| 2026-05-05 01:54 | 38.23534 | -84.19830 | 33869 ft | 457 kts | 187° |
| 2026-05-05 01:54 | 38.17184 | -84.20210 | 33878 ft | 456 kts | 187° |
| 2026-05-05 01:55 | 38.10835 | -84.20589 | 33886 ft | 457 kts | 187° |
| 2026-05-05 01:55 | 38.04486 | -84.20963 | 33887 ft | 457 kts | 187° |
| 2026-05-05 01:56 | 37.98132 | -84.21285 | 33878 ft | 459 kts | 182° |
| 2026-05-05 01:56 | 37.91750 | -84.20414 | 33888 ft | 464 kts | 175° |
| 2026-05-05 01:57 | 37.85410 | -84.19114 | 33884 ft | 464 kts | 175° |
| 2026-05-05 01:57 | 37.79028 | -84.17947 | 33889 ft | 463 kts | 176° |
| 2026-05-05 01:58 | 37.72639 | -84.16919 | 33893 ft | 463 kts | 177° |
| 2026-05-05 01:58 | 37.66237 | -84.15938 | 33896 ft | 463 kts | 177° |
| 2026-05-05 01:59 | 37.59836 | -84.14962 | 33895 ft | 463 kts | 177° |
| 2026-05-05 01:59 | 37.53436 | -84.13982 | 33899 ft | 464 kts | 177° |
| 2026-05-05 02:00 | 37.47032 | -84.13001 | 33902 ft | 464 kts | 177° |
| 2026-05-05 02:00 | 37.40614 | -84.12018 | 33922 ft | 464 kts | 177° |
| 2026-05-05 02:01 | 37.34197 | -84.11036 | 33922 ft | 465 kts | 178° |
| 2026-05-05 02:01 | 37.27778 | -84.10057 | 33925 ft | 465 kts | 178° |
| 2026-05-05 02:02 | 37.21349 | -84.09077 | 33932 ft | 465 kts | 178° |
| 2026-05-05 02:02 | 37.14925 | -84.08101 | 33935 ft | 465 kts | 178° |
| 2026-05-05 02:03 | 37.08499 | -84.07125 | 33926 ft | 465 kts | 178° |
| 2026-05-05 02:03 | 37.02120 | -84.06158 | 33935 ft | 464 kts | 178° |
| 2026-05-05 02:04 | 36.95703 | -84.05188 | 33936 ft | 465 kts | 178° |
| 2026-05-05 02:04 | 36.89286 | -84.04218 | 33958 ft | 465 kts | 178° |
| 2026-05-05 02:05 | 36.82860 | -84.03249 | 33953 ft | 464 kts | 178° |
| 2026-05-05 02:05 | 36.76446 | -84.02284 | 33957 ft | 464 kts | 178° |
| 2026-05-05 02:06 | 36.70042 | -84.01321 | 33956 ft | 463 kts | 178° |
| 2026-05-05 02:06 | 36.63631 | -84.00360 | 33956 ft | 463 kts | 178° |
| 2026-05-05 02:07 | 36.57225 | -83.99400 | 33952 ft | 463 kts | 178° |
| 2026-05-05 02:07 | 36.50842 | -83.98445 | 33964 ft | 462 kts | 178° |
| 2026-05-05 02:08 | 36.44464 | -83.97493 | 33961 ft | 460 kts | 178° |
| 2026-05-05 02:08 | 36.38143 | -83.96551 | 33954 ft | 460 kts | 178° |
| 2026-05-05 02:09 | 36.31753 | -83.95601 | 33957 ft | 459 kts | 178° |
| 2026-05-05 02:09 | 36.25410 | -83.94659 | 33955 ft | 459 kts | 178° |
| 2026-05-05 02:10 | 36.19069 | -83.93719 | 33963 ft | 459 kts | 178° |
| 2026-05-05 02:10 | 36.12772 | -83.92786 | 33983 ft | 459 kts | 178° |
| 2026-05-05 02:11 | 36.06438 | -83.91850 | 33989 ft | 459 kts | 178° |
| 2026-05-05 02:11 | 36.00097 | -83.90914 | 33987 ft | 459 kts | 178° |
| 2026-05-05 02:12 | 35.90597 | -83.89381 | 33984 ft | 462 kts | 172° |
| 2026-05-05 02:13 | 35.84475 | -83.86743 | 33993 ft | 468 kts | 162° |
| 2026-05-05 02:13 | 35.78435 | -83.83699 | 33994 ft | 469 kts | 162° |
| 2026-05-05 02:14 | 35.72391 | -83.80680 | 33992 ft | 469 kts | 162° |
| 2026-05-05 02:14 | 35.66335 | -83.77710 | 33990 ft | 469 kts | 163° |
| 2026-05-05 02:15 | 35.60313 | -83.74782 | 33990 ft | 468 kts | 163° |
| 2026-05-05 02:15 | 35.54262 | -83.71850 | 33999 ft | 468 kts | 163° |
| 2026-05-05 02:16 | 35.48216 | -83.68923 | 34024 ft | 466 kts | 163° |
| 2026-05-05 02:16 | 35.42186 | -83.66007 | 34032 ft | 466 kts | 163° |
| 2026-05-05 02:17 | 35.36161 | -83.63098 | 34051 ft | 465 kts | 163° |
| 2026-05-05 02:17 | 35.30134 | -83.60194 | 34047 ft | 465 kts | 163° |
| 2026-05-05 02:18 | 35.24114 | -83.57297 | 34061 ft | 465 kts | 163° |
| 2026-05-05 02:18 | 35.18079 | -83.54397 | 34051 ft | 466 kts | 163° |
| 2026-05-05 02:19 | 35.12048 | -83.51504 | 34045 ft | 466 kts | 163° |
| 2026-05-05 02:19 | 35.06012 | -83.48613 | 34062 ft | 466 kts | 163° |
| 2026-05-05 02:20 | 34.99963 | -83.45720 | 34042 ft | 467 kts | 163° |
| 2026-05-05 02:20 | 34.93913 | -83.42831 | 34047 ft | 467 kts | 163° |
| 2026-05-05 02:21 | 34.87869 | -83.39950 | 34056 ft | 466 kts | 163° |
| 2026-05-05 02:21 | 34.81823 | -83.37073 | 34052 ft | 466 kts | 163° |
| 2026-05-05 02:22 | 34.75778 | -83.34200 | 34063 ft | 466 kts | 163° |
| 2026-05-05 02:22 | 34.69736 | -83.31333 | 34064 ft | 466 kts | 163° |
| 2026-05-05 02:23 | 34.63685 | -83.28467 | 34073 ft | 466 kts | 163° |
| 2026-05-05 02:23 | 34.57640 | -83.25608 | 34073 ft | 466 kts | 163° |
| 2026-05-05 02:24 | 34.51592 | -83.22752 | 34073 ft | 467 kts | 163° |
| 2026-05-05 02:24 | 34.45529 | -83.19894 | 34065 ft | 467 kts | 163° |
| 2026-05-05 02:25 | 34.40487 | -83.17521 | 34060 ft | 468 kts | 163° |
| 2026-05-05 02:25 | 34.33416 | -83.14197 | 34051 ft | 469 kts | 163° |
| 2026-05-05 02:26 | 34.27332 | -83.11342 | 34048 ft | 470 kts | 163° |
| 2026-05-05 02:26 | 34.21218 | -83.08477 | 34059 ft | 471 kts | 163° |
| 2026-05-05 02:27 | 34.15109 | -83.05619 | 34063 ft | 471 kts | 163° |
| 2026-05-05 02:27 | 34.10021 | -83.03242 | 34061 ft | 471 kts | 163° |
| 2026-05-05 02:28 | 34.03898 | -83.00386 | 34064 ft | 472 kts | 163° |
| 2026-05-05 02:28 | 33.96782 | -82.97071 | 34063 ft | 472 kts | 163° |
| 2026-05-05 02:29 | 33.91650 | -82.94685 | 34071 ft | 472 kts | 163° |
| 2026-05-05 02:29 | 33.85520 | -82.91839 | 34080 ft | 472 kts | 163° |
| 2026-05-05 02:30 | 33.79391 | -82.88997 | 34082 ft | 472 kts | 163° |
| 2026-05-05 02:30 | 33.73264 | -82.86161 | 34080 ft | 472 kts | 163° |
| 2026-05-05 02:31 | 33.67124 | -82.83324 | 34080 ft | 473 kts | 163° |
| 2026-05-05 02:31 | 33.61024 | -82.80509 | 34076 ft | 473 kts | 163° |
| 2026-05-05 02:32 | 33.54877 | -82.77676 | 34091 ft | 474 kts | 163° |
| 2026-05-05 02:32 | 33.48721 | -82.74844 | 34098 ft | 474 kts | 163° |
| 2026-05-05 02:33 | 33.42560 | -82.72014 | 34100 ft | 475 kts | 163° |
| 2026-05-05 02:33 | 33.36382 | -82.69181 | 34088 ft | 475 kts | 163° |
| 2026-05-05 02:34 | 33.30202 | -82.66350 | 34091 ft | 476 kts | 164° |
| 2026-05-05 02:34 | 33.24012 | -82.63520 | 34072 ft | 476 kts | 164° |
| 2026-05-05 02:35 | 33.17817 | -82.60691 | 34046 ft | 477 kts | 164° |
| 2026-05-05 02:35 | 33.11603 | -82.57858 | 34051 ft | 477 kts | 164° |
| 2026-05-05 02:36 | 33.05393 | -82.55031 | 34051 ft | 478 kts | 164° |
| 2026-05-05 02:36 | 32.99171 | -82.52204 | 34046 ft | 479 kts | 164° |
| 2026-05-05 02:37 | 32.92944 | -82.49378 | 34056 ft | 479 kts | 164° |
| 2026-05-05 02:37 | 32.86755 | -82.46573 | 34054 ft | 480 kts | 164° |
| 2026-05-05 02:38 | 32.80498 | -82.43742 | 34053 ft | 480 kts | 164° |
| 2026-05-05 02:38 | 32.74250 | -82.40919 | 34053 ft | 481 kts | 165° |
| 2026-05-05 02:39 | 32.67976 | -82.38089 | 34059 ft | 482 kts | 165° |
| 2026-05-05 02:39 | 32.61699 | -82.35262 | 34062 ft | 483 kts | 165° |
| 2026-05-05 02:40 | 32.55407 | -82.32432 | 34072 ft | 484 kts | 165° |
| 2026-05-05 02:40 | 32.49144 | -82.29620 | 34082 ft | 485 kts | 165° |
| 2026-05-05 02:41 | 32.42825 | -82.26787 | 34089 ft | 486 kts | 165° |
| 2026-05-05 02:41 | 32.36492 | -82.23951 | 34090 ft | 487 kts | 165° |
| 2026-05-05 02:42 | 32.30149 | -82.21115 | 34089 ft | 488 kts | 165° |
| 2026-05-05 02:42 | 32.23789 | -82.18276 | 34088 ft | 489 kts | 165° |
| 2026-05-05 02:43 | 32.17417 | -82.15436 | 34094 ft | 490 kts | 165° |
| 2026-05-05 02:43 | 32.11030 | -82.12593 | 34089 ft | 491 kts | 166° |
| 2026-05-05 02:44 | 32.04629 | -82.09748 | 34100 ft | 492 kts | 166° |
| 2026-05-05 02:44 | 31.98218 | -82.06902 | 34097 ft | 493 kts | 166° |
| 2026-05-05 02:45 | 31.91803 | -82.04066 | 34093 ft | 492 kts | 168° |
| 2026-05-05 02:45 | 31.88535 | -82.03073 | 34087 ft | 480 kts | 179° |
| 2026-05-05 02:45 | 31.85237 | -82.02767 | 34093 ft | 470 kts | 188° |
| 2026-05-05 02:46 | 31.78922 | -82.03842 | 34107 ft | 453 kts | 202° |
| 2026-05-05 02:46 | 31.72794 | -82.05646 | 34095 ft | 455 kts | 202° |
| 2026-05-05 02:47 | 31.66639 | -82.07424 | 34107 ft | 457 kts | 202° |
| 2026-05-05 02:47 | 31.60446 | -82.09170 | 34111 ft | 458 kts | 202° |
| 2026-05-05 02:48 | 31.54233 | -82.10905 | 34110 ft | 460 kts | 202° |
| 2026-05-05 02:48 | 31.48038 | -82.12631 | 34100 ft | 461 kts | 202° |
| 2026-05-05 02:49 | 31.41742 | -82.14385 | 34090 ft | 463 kts | 202° |
| 2026-05-05 02:49 | 31.35476 | -82.16129 | 34087 ft | 463 kts | 202° |
| 2026-05-05 02:50 | 31.29195 | -82.17874 | 34084 ft | 464 kts | 202° |
| 2026-05-05 02:50 | 31.22904 | -82.19620 | 34084 ft | 464 kts | 202° |
| 2026-05-05 02:51 | 31.16657 | -82.21352 | 34084 ft | 465 kts | 202° |
| 2026-05-05 02:51 | 31.10361 | -82.23095 | 34087 ft | 465 kts | 203° |
| 2026-05-05 02:52 | 31.04066 | -82.24836 | 34087 ft | 465 kts | 203° |
| 2026-05-05 02:52 | 30.97691 | -82.26351 | 34097 ft | 472 kts | 197° |
| 2026-05-05 02:53 | 30.91124 | -82.27233 | 34090 ft | 476 kts | 195° |
| 2026-05-05 02:53 | 30.84546 | -82.28074 | 34082 ft | 475 kts | 196° |
| 2026-05-05 02:54 | 30.77979 | -82.29009 | 34085 ft | 475 kts | 197° |
| 2026-05-05 02:54 | 30.71415 | -82.29976 | 34073 ft | 476 kts | 197° |
| 2026-05-05 02:55 | 30.64831 | -82.30941 | 34082 ft | 477 kts | 197° |
| 2026-05-05 02:55 | 30.58165 | -82.31534 | 34067 ft | 495 kts | 181° |
| 2026-05-05 02:56 | 30.51324 | -82.30152 | 34092 ft | 502 kts | 176° |
| 2026-05-05 02:56 | 30.44515 | -82.28619 | 34085 ft | 502 kts | 177° |
| 2026-05-05 02:57 | 30.37645 | -82.27190 | 34091 ft | 502 kts | 178° |
| 2026-05-05 02:57 | 30.30760 | -82.25818 | 34088 ft | 502 kts | 178° |
| 2026-05-05 02:58 | 30.23868 | -82.24443 | 34091 ft | 503 kts | 178° |
| 2026-05-05 02:58 | 30.16968 | -82.23063 | 34083 ft | 503 kts | 178° |
| 2026-05-05 02:59 | 30.10064 | -82.21697 | 34088 ft | 503 kts | 178° |
| 2026-05-05 02:59 | 30.03157 | -82.20333 | 34093 ft | 503 kts | 178° |
| 2026-05-05 03:00 | 29.96254 | -82.18969 | 34094 ft | 503 kts | 178° |
| 2026-05-05 03:00 | 29.92798 | -82.18288 | 33894 ft | 507 kts | 178° |
| 2026-05-05 03:00 | 29.89282 | -82.17597 | 33165 ft | 511 kts | 178° |
| 2026-05-05 03:00 | 29.85789 | -82.16900 | 32406 ft | 509 kts | 178° |
| 2026-05-05 03:01 | 29.82305 | -82.16202 | 31632 ft | 508 kts | 178° |
| 2026-05-05 03:01 | 29.78839 | -82.15506 | 31047 ft | 502 kts | 178° |
| 2026-05-05 03:01 | 29.75414 | -82.14818 | 30474 ft | 496 kts | 178° |
| 2026-05-05 03:01 | 29.72031 | -82.14141 | 29841 ft | 491 kts | 178° |
| 2026-05-05 03:02 | 29.68686 | -82.13475 | 29213 ft | 484 kts | 178° |
| 2026-05-05 03:02 | 29.65384 | -82.12818 | 28639 ft | 478 kts | 178° |
| 2026-05-05 03:02 | 29.62135 | -82.12174 | 28069 ft | 471 kts | 178° |
| 2026-05-05 03:02 | 29.58919 | -82.11537 | 27507 ft | 465 kts | 177° |
| 2026-05-05 03:03 | 29.55770 | -82.10913 | 26949 ft | 456 kts | 177° |
| 2026-05-05 03:03 | 29.52674 | -82.10300 | 26399 ft | 447 kts | 177° |
| 2026-05-05 03:03 | 29.49673 | -82.09706 | 25864 ft | 439 kts | 177° |
| 2026-05-05 03:03 | 29.46649 | -82.09107 | 25405 ft | 430 kts | 177° |
| 2026-05-05 03:04 | 29.43739 | -82.08530 | 25183 ft | 419 kts | 177° |
| 2026-05-05 03:04 | 29.40898 | -82.07971 | 24808 ft | 419 kts | 177° |
| 2026-05-05 03:04 | 29.38047 | -82.07411 | 24322 ft | 413 kts | 176° |
| 2026-05-05 03:04 | 29.35230 | -82.06855 | 23831 ft | 408 kts | 176° |
| 2026-05-05 03:05 | 29.32449 | -82.06306 | 23241 ft | 404 kts | 176° |
| 2026-05-05 03:05 | 29.29740 | -82.05471 | 22691 ft | 408 kts | 160° |
| 2026-05-05 03:05 | 29.27233 | -82.03940 | 22260 ft | 407 kts | 155° |
| 2026-05-05 03:05 | 29.24770 | -82.02335 | 21730 ft | 408 kts | 155° |
| 2026-05-05 03:06 | 29.22303 | -82.00725 | 21221 ft | 408 kts | 155° |
| 2026-05-05 03:06 | 29.19834 | -81.99135 | 20708 ft | 407 kts | 155° |
| 2026-05-05 03:06 | 29.17359 | -81.97561 | 20200 ft | 406 kts | 155° |
| 2026-05-05 03:06 | 29.14892 | -81.96006 | 19691 ft | 404 kts | 155° |
| 2026-05-05 03:07 | 29.12440 | -81.94465 | 19185 ft | 402 kts | 155° |
| 2026-05-05 03:07 | 29.09991 | -81.92929 | 18660 ft | 400 kts | 155° |
| 2026-05-05 03:07 | 29.07562 | -81.91401 | 18113 ft | 398 kts | 153° |
| 2026-05-05 03:07 | 29.05342 | -81.89503 | 17562 ft | 400 kts | 139° |
| 2026-05-05 03:08 | 29.03358 | -81.87283 | 17064 ft | 397 kts | 138° |
| 2026-05-05 03:08 | 29.01394 | -81.85097 | 16559 ft | 393 kts | 138° |
| 2026-05-05 03:08 | 28.99423 | -81.82955 | 16181 ft | 386 kts | 139° |
| 2026-05-05 03:08 | 28.97534 | -81.80847 | 15955 ft | 376 kts | 134° |
| 2026-05-05 03:09 | 28.95885 | -81.78542 | 15588 ft | 372 kts | 129° |
| 2026-05-05 03:09 | 28.94873 | -81.76982 | 15337 ft | 368 kts | 128° |
| 2026-05-05 03:09 | 28.93369 | -81.74621 | 14919 ft | 365 kts | 128° |
| 2026-05-05 03:09 | 28.91361 | -81.71539 | 14459 ft | 358 kts | 128° |
| 2026-05-05 03:10 | 28.90371 | -81.70054 | 14224 ft | 353 kts | 129° |
| 2026-05-05 03:10 | 28.88396 | -81.67124 | 13741 ft | 342 kts | 129° |
| 2026-05-05 03:10 | 28.86958 | -81.65000 | 13378 ft | 334 kts | 129° |
| 2026-05-05 03:10 | 28.85573 | -81.62953 | 13039 ft | 326 kts | 129° |
| 2026-05-05 03:11 | 28.84202 | -81.60926 | 12715 ft | 319 kts | 129° |
| 2026-05-05 03:11 | 28.82864 | -81.58947 | 12406 ft | 311 kts | 129° |
| 2026-05-05 03:11 | 28.81551 | -81.57008 | 12110 ft | 307 kts | 129° |
| 2026-05-05 03:11 | 28.80251 | -81.55100 | 11806 ft | 303 kts | 131° |
| 2026-05-05 03:12 | 28.78667 | -81.53572 | 11509 ft | 297 kts | 153° |
| 2026-05-05 03:12 | 28.77460 | -81.52838 | 11353 ft | 297 kts | 154° |
| 2026-05-05 03:12 | 28.75612 | -81.51752 | 11056 ft | 300 kts | 154° |
| 2026-05-05 03:12 | 28.73774 | -81.50674 | 10759 ft | 294 kts | 154° |
| 2026-05-05 03:13 | 28.71984 | -81.49618 | 10462 ft | 287 kts | 154° |
| 2026-05-05 03:13 | 28.70233 | -81.48578 | 10195 ft | 280 kts | 154° |
| 2026-05-05 03:13 | 28.68527 | -81.47560 | 9920 ft | 275 kts | 154° |
| 2026-05-05 03:13 | 28.66846 | -81.46555 | 9633 ft | 270 kts | 154° |
| 2026-05-05 03:14 | 28.65189 | -81.45563 | 9366 ft | 268 kts | 154° |
| 2026-05-05 03:14 | 28.63540 | -81.44577 | 9101 ft | 266 kts | 154° |
| 2026-05-05 03:14 | 28.61912 | -81.43603 | 8842 ft | 264 kts | 154° |
| 2026-05-05 03:14 | 28.60249 | -81.42743 | 8565 ft | 260 kts | 169° |
| 2026-05-05 03:15 | 28.58477 | -81.42501 | 8347 ft | 256 kts | 177° |
| 2026-05-05 03:15 | 28.56693 | -81.42361 | 8091 ft | 258 kts | 180° |
| 2026-05-05 03:15 | 28.54888 | -81.42344 | 7852 ft | 260 kts | 182° |
| 2026-05-05 03:15 | 28.53080 | -81.42363 | 7593 ft | 259 kts | 182° |
| 2026-05-05 03:16 | 28.51283 | -81.42382 | 7331 ft | 256 kts | 182° |
| 2026-05-05 03:16 | 28.49528 | -81.42394 | 7071 ft | 248 kts | 182° |
| 2026-05-05 03:16 | 28.47828 | -81.42402 | 6830 ft | 241 kts | 182° |
| 2026-05-05 03:16 | 28.46181 | -81.42407 | 6600 ft | 233 kts | 182° |
| 2026-05-05 03:17 | 28.44585 | -81.42410 | 6365 ft | 227 kts | 182° |
| 2026-05-05 03:17 | 28.43021 | -81.42413 | 6141 ft | 223 kts | 182° |
| 2026-05-05 03:17 | 28.41467 | -81.42415 | 5922 ft | 223 kts | 181° |
| 2026-05-05 03:17 | 28.39910 | -81.42416 | 5737 ft | 225 kts | 181° |
| 2026-05-05 03:18 | 28.38371 | -81.42416 | 5532 ft | 224 kts | 181° |
| 2026-05-05 03:18 | 28.36821 | -81.42416 | 5283 ft | 220 kts | 181° |
| 2026-05-05 03:18 | 28.35316 | -81.42416 | 5058 ft | 215 kts | 181° |
| 2026-05-05 03:18 | 28.33806 | -81.42419 | 4807 ft | 213 kts | 180° |
| 2026-05-05 03:19 | 28.31428 | -81.41003 | 4297 ft | 197 kts | 121° |
| 2026-05-05 03:19 | 28.30715 | -81.39691 | 4030 ft | 193 kts | 123° |
| 2026-05-05 03:19 | 28.29998 | -81.38441 | 3785 ft | 185 kts | 123° |
| 2026-05-05 03:20 | 28.29302 | -81.37249 | 3529 ft | 177 kts | 123° |
| 2026-05-05 03:20 | 28.28843 | -81.36013 | 3292 ft | 166 kts | 98° |
| 2026-05-05 03:20 | 28.28901 | -81.34757 | 3146 ft | 156 kts | 76° |
| 2026-05-05 03:20 | 28.29415 | -81.33687 | 2861 ft | 157 kts | 51° |
| 2026-05-05 03:21 | 28.30289 | -81.32966 | 2568 ft | 156 kts | 30° |
| 2026-05-05 03:21 | 28.31341 | -81.32701 | 2259 ft | 156 kts | 6° |
| 2026-05-05 03:21 | 28.32426 | -81.32672 | 1982 ft | 157 kts | 9° |
| 2026-05-05 03:21 | 28.33501 | -81.32600 | 1691 ft | 152 kts | 7° |
| 2026-05-05 03:22 | 28.34532 | -81.32590 | 1482 ft | 149 kts | 6° |
| 2026-05-05 03:22 | 28.35574 | -81.32598 | 1299 ft | 150 kts | 5° |
| 2026-05-05 03:22 | 28.36619 | -81.32609 | 1102 ft | 150 kts | 5° |
| 2026-05-05 03:22 | 28.37654 | -81.32620 | 898 ft | 147 kts | 5° |
| 2026-05-05 03:23 | 28.38677 | -81.32631 | 696 ft | 146 kts | 3° |
| 2026-05-05 03:23 | 28.39690 | -81.32644 | 496 ft | 146 kts | 2° |
| 2026-05-05 03:23 | 28.40704 | -81.32664 | 353 ft | 148 kts | 3° |
| 2026-05-05 03:23 | 28.41710 | -81.32665 | 122 ft | 138 kts | 2° |
| 2026-05-05 03:24 | 28.42565 | -81.32673 | 102 ft | 104 kts | 359° |
| 2026-05-05 03:24 | 28.43133 | -81.32679 | 106 ft | 60 kts | 360° |
| 2026-05-05 03:24 | 28.43413 | -81.32682 | 107 ft | 32 kts | 359° |
| 2026-05-05 03:24 | 28.43631 | -81.32662 | 104 ft | 30 kts | 19° |
| 2026-05-05 03:25 | 28.43768 | -81.32500 | 104 ft | 28 kts | 58° |
| 2026-05-05 03:25 | 28.43868 | -81.32315 | 108 ft | 27 kts | 59° |
| 2026-05-05 03:25 | 28.43958 | -81.32143 | 107 ft | 20 kts | 59° |
| 2026-05-05 03:25 | 28.43956 | -81.32018 | 110 ft | 18 kts | 147° |
| 2026-05-05 03:26 | 28.43837 | -81.32002 | 108 ft | 17 kts | 180° |
| 2026-05-05 03:26 | 28.43720 | -81.32002 | 106 ft | 16 kts | 180° |
| 2026-05-05 03:26 | 28.43607 | -81.32001 | 105 ft | 16 kts | 179° |
| 2026-05-05 03:26 | 28.43499 | -81.31998 | 103 ft | 15 kts | 179° |
| 2026-05-05 03:27 | 28.43411 | -81.31957 | 101 ft | 15 kts | 108° |
| 2026-05-05 03:27 | 28.43384 | -81.31854 | 101 ft | 14 kts | 142° |
| 2026-05-05 03:27 | 28.43291 | -81.31841 | 99 ft | 13 kts | 179° |
| 2026-05-05 03:27 | 28.43200 | -81.31841 | 101 ft | 13 kts | 180° |
| 2026-05-05 03:28 | 28.43110 | -81.31839 | 101 ft | 14 kts | 179° |
| 2026-05-05 03:28 | 28.43000 | -81.31838 | 101 ft | 18 kts | 179° |
| 2026-05-05 03:28 | 28.42859 | -81.31836 | 102 ft | 22 kts | 179° |
| 2026-05-05 03:28 | 28.42701 | -81.31835 | 105 ft | 22 kts | 179° |
| 2026-05-05 03:29 | 28.42551 | -81.31833 | 105 ft | 22 kts | 179° |
| 2026-05-05 03:29 | 28.42404 | -81.31831 | 105 ft | 21 kts | 177° |
| 2026-05-05 03:29 | 28.42348 | -81.31740 | 104 ft | 15 kts | 91° |
| 2026-05-05 03:29 | 28.42348 | -81.31623 | 101 ft | 15 kts | 89° |
| 2026-05-05 03:30 | 28.42349 | -81.31508 | 98 ft | 15 kts | 89° |
| 2026-05-05 03:30 | 28.42350 | -81.31395 | 96 ft | 14 kts | 89° |
| 2026-05-05 03:30 | 28.42350 | -81.31282 | 94 ft | 16 kts | 91° |
| 2026-05-05 03:30 | 28.42335 | -81.31139 | 93 ft | 21 kts | 102° |
| 2026-05-05 03:31 | 28.42317 | -81.30956 | 92 ft | 25 kts | 86° |
| 2026-05-05 03:31 | 28.42331 | -81.30754 | 104 ft | 26 kts | 85° |
| 2026-05-05 03:31 | 28.42345 | -81.30552 | 105 ft | 28 kts | 87° |
| 2026-05-05 03:31 | 28.42359 | -81.30317 | 100 ft | 31 kts | 89° |
| 2026-05-05 03:32 | 28.42377 | -81.30156 | 101 ft | 16 kts | 42° |
| 2026-05-05 03:32 | 28.42473 | -81.30170 | 102 ft | 15 kts | 307° |
| 2026-05-05 03:32 | 28.42545 | -81.30249 | 102 ft | 15 kts | 358° |
| 2026-05-05 03:32 | 28.42600 | -81.30171 | 102 ft | 6 kts | 60° |
| 2026-05-05 03:33 | 28.42618 | -81.30134 | 100 ft | 0 kts | 59° |